sensor_id;sensor_type;location;lat;lon;timestamp;pressure;altitude;pressure_sealevel;temperature;humidity
39265;BME280;42646;51.910;7.724;2023-04-22T00:00:28;100289.03;;;11.37;100.00
39265;BME280;42646;51.910;7.724;2023-04-22T00:02:57;100291.31;;;11.32;100.00
39265;BME280;42646;51.910;7.724;2023-04-22T00:05:27;100289.13;;;11.28;100.00
39265;BME280;42646;51.910;7.724;2023-04-22T00:07:55;100294.75;;;11.24;100.00
39265;BME280;42646;51.910;7.724;2023-04-22T00:10:23;100294.38;;;11.19;100.00
39265;BME280;42646;51.910;7.724;2023-04-22T00:12:51;100287.13;;;11.12;100.00
39265;BME280;42646;51.910;7.724;2023-04-22T00:15:18;100291.91;;;11.08;100.00
39265;BME280;42646;51.910;7.724;2023-04-22T00:17:50;100289.72;;;11.04;100.00
39265;BME280;42646;51.910;7.724;2023-04-22T00:20:18;100300.00;;;10.99;100.00
39265;BME280;42646;51.910;7.724;2023-04-22T00:22:47;100302.25;;;10.93;100.00
39265;BME280;42646;51.910;7.724;2023-04-22T00:25:15;100299.19;;;10.88;100.00
39265;BME280;42646;51.910;7.724;2023-04-22T00:27:43;100292.81;;;10.81;100.00
39265;BME280;42646;51.910;7.724;2023-04-22T00:30:13;100290.75;;;10.75;100.00
39265;BME280;42646;51.910;7.724;2023-04-22T00:32:44;100285.84;;;10.70;100.00
39265;BME280;42646;51.910;7.724;2023-04-22T00:35:14;100290.94;;;10.64;100.00
39265;BME280;42646;51.910;7.724;2023-04-22T00:37:41;100290.53;;;10.59;100.00
39265;BME280;42646;51.910;7.724;2023-04-22T00:40:09;100281.16;;;10.55;100.00
39265;BME280;42646;51.910;7.724;2023-04-22T00:42:37;100287.78;;;10.51;100.00
39265;BME280;42646;51.910;7.724;2023-04-22T00:45:09;100290.19;;;10.44;100.00
39265;BME280;42646;51.910;7.724;2023-04-22T00:47:37;100288.81;;;10.40;100.00
39265;BME280;42646;51.910;7.724;2023-04-22T00:50:07;100292.88;;;10.34;100.00
39265;BME280;42646;51.910;7.724;2023-04-22T00:52:36;100285.50;;;10.28;100.00
39265;BME280;42646;51.910;7.724;2023-04-22T00:55:06;100288.69;;;10.22;100.00
39265;BME280;42646;51.910;7.724;2023-04-22T00:57:34;100279.47;;;10.16;100.00
39265;BME280;42646;51.910;7.724;2023-04-22T01:00:04;100285.38;;;10.10;100.00
39265;BME280;42646;51.910;7.724;2023-04-22T01:02:32;100285.13;;;10.04;100.00
39265;BME280;42646;51.910;7.724;2023-04-22T01:05:01;100290.03;;;9.99;100.00
39265;BME280;42646;51.910;7.724;2023-04-22T01:07:31;100282.63;;;9.93;100.00
39265;BME280;42646;51.910;7.724;2023-04-22T01:10:00;100282.22;;;9.87;100.00
39265;BME280;42646;51.910;7.724;2023-04-22T01:20:28;100274.00;;;9.61;100.00
39265;BME280;42646;51.910;7.724;2023-04-22T01:22:57;100274.44;;;9.57;100.00
39265;BME280;42646;51.910;7.724;2023-04-22T01:25:30;100269.69;;;9.51;100.00
39265;BME280;42646;51.910;7.724;2023-04-22T01:27:59;100268.44;;;9.45;100.00
39265;BME280;42646;51.910;7.724;2023-04-22T01:30:26;100268.69;;;9.42;100.00
39265;BME280;42646;51.910;7.724;2023-04-22T01:32:54;100261.03;;;9.39;100.00
39265;BME280;42646;51.910;7.724;2023-04-22T01:35:23;100271.91;;;9.36;100.00
39265;BME280;42646;51.910;7.724;2023-04-22T01:37:50;100265.34;;;9.30;100.00
39265;BME280;42646;51.910;7.724;2023-04-22T01:40:22;100268.44;;;9.26;100.00
39265;BME280;42646;51.910;7.724;2023-04-22T01:42:52;100267.03;;;9.22;100.00
39265;BME280;42646;51.910;7.724;2023-04-22T01:45:20;100270.94;;;9.18;100.00
39265;BME280;42646;51.910;7.724;2023-04-22T01:48:13;100264.34;;;9.12;100.00
39265;BME280;42646;51.910;7.724;2023-04-22T01:50:42;100271.78;;;9.08;100.00
39265;BME280;42646;51.910;7.724;2023-04-22T01:53:12;100275.41;;;9.07;100.00
39265;BME280;42646;51.910;7.724;2023-04-22T01:55:48;100274.69;;;9.05;100.00
39265;BME280;42646;51.910;7.724;2023-04-22T01:58:17;100274.00;;;9.03;100.00
39265;BME280;42646;51.910;7.724;2023-04-22T02:00:45;100273.31;;;9.01;100.00
39265;BME280;42646;51.910;7.724;2023-04-22T02:03:14;100285.16;;;8.97;100.00
39265;BME280;42646;51.910;7.724;2023-04-22T02:05:43;100277.59;;;8.93;100.00
39265;BME280;42646;51.910;7.724;2023-04-22T02:08:11;100275.50;;;8.87;100.00
39265;BME280;42646;51.910;7.724;2023-04-22T02:10:38;100275.78;;;8.83;100.00
39265;BME280;42646;51.910;7.724;2023-04-22T02:13:06;100275.06;;;8.81;100.00
39265;BME280;42646;51.910;7.724;2023-04-22T02:15:36;100273.41;;;8.80;100.00
39265;BME280;42646;51.910;7.724;2023-04-22T02:18:05;100270.88;;;8.79;100.00
39265;BME280;42646;51.910;7.724;2023-04-22T02:20:35;100273.53;;;8.79;100.00
39265;BME280;42646;51.910;7.724;2023-04-22T02:23:04;100273.66;;;8.77;100.00
39265;BME280;42646;51.910;7.724;2023-04-22T02:25:32;100274.63;;;8.76;100.00
39265;BME280;42646;51.910;7.724;2023-04-22T02:28:00;100284.41;;;8.76;100.00
39265;BME280;42646;51.910;7.724;2023-04-22T02:30:29;100282.88;;;8.73;100.00
39265;BME280;42646;51.910;7.724;2023-04-22T02:32:58;100282.03;;;8.73;100.00
39265;BME280;42646;51.910;7.724;2023-04-22T02:35:26;100278.56;;;8.72;100.00
39265;BME280;42646;51.910;7.724;2023-04-22T02:37:54;100266.25;;;8.71;100.00
39265;BME280;42646;51.910;7.724;2023-04-22T02:40:25;100272.53;;;8.70;100.00
39265;BME280;42646;51.910;7.724;2023-04-22T02:42:52;100281.47;;;8.69;100.00
39265;BME280;42646;51.910;7.724;2023-04-22T02:45:21;100269.31;;;8.67;100.00
39265;BME280;42646;51.910;7.724;2023-04-22T02:47:49;100270.31;;;8.66;100.00
39265;BME280;42646;51.910;7.724;2023-04-22T02:50:18;100270.41;;;8.64;100.00
39265;BME280;42646;51.910;7.724;2023-04-22T02:52:46;100267.66;;;8.66;100.00
39265;BME280;42646;51.910;7.724;2023-04-22T02:55:14;100265.84;;;8.66;100.00
39265;BME280;42646;51.910;7.724;2023-04-22T02:57:42;100263.03;;;8.68;100.00
39265;BME280;42646;51.910;7.724;2023-04-22T03:00:10;100255.09;;;8.68;100.00
39265;BME280;42646;51.910;7.724;2023-04-22T03:02:38;100256.75;;;8.69;100.00
39265;BME280;42646;51.910;7.724;2023-04-22T03:05:12;100253.97;;;8.70;100.00
39265;BME280;42646;51.910;7.724;2023-04-22T03:07:42;100262.91;;;8.69;100.00
39265;BME280;42646;51.910;7.724;2023-04-22T03:10:15;100257.59;;;8.69;100.00
39265;BME280;42646;51.910;7.724;2023-04-22T03:12:45;100259.25;;;8.70;100.00
39265;BME280;42646;51.910;7.724;2023-04-22T03:15:14;100258.28;;;8.71;100.00
39265;BME280;42646;51.910;7.724;2023-04-22T03:17:47;100260.94;;;8.71;100.00
39265;BME280;42646;51.910;7.724;2023-04-22T03:20:18;100260.94;;;8.71;100.00
39265;BME280;42646;51.910;7.724;2023-04-22T03:22:50;100259.16;;;8.72;100.00
39265;BME280;42646;51.910;7.724;2023-04-22T03:25:19;100260.00;;;8.72;100.00
39265;BME280;42646;51.910;7.724;2023-04-22T03:27:51;100256.50;;;8.72;100.00
39265;BME280;42646;51.910;7.724;2023-04-22T03:30:19;100252.97;;;8.71;100.00
39265;BME280;42646;51.910;7.724;2023-04-22T03:32:47;100251.31;;;8.70;100.00
39265;BME280;42646;51.910;7.724;2023-04-22T03:35:42;100247.69;;;8.71;100.00
39265;BME280;42646;51.910;7.724;2023-04-22T03:38:12;100246.84;;;8.71;100.00
39265;BME280;42646;51.910;7.724;2023-04-22T03:40:41;100242.38;;;8.71;100.00
39265;BME280;42646;51.910;7.724;2023-04-22T03:43:43;100238.19;;;8.69;100.00
39265;BME280;42646;51.910;7.724;2023-04-22T03:46:11;100239.03;;;8.69;100.00
39265;BME280;42646;51.910;7.724;2023-04-22T03:48:43;100234.56;;;8.70;100.00
39265;BME280;42646;51.910;7.724;2023-04-22T03:51:21;100228.16;;;8.72;100.00
39265;BME280;42646;51.910;7.724;2023-04-22T03:53:53;100223.41;;;8.76;100.00
39265;BME280;42646;51.910;7.724;2023-04-22T03:56:24;100231.09;;;8.79;100.00
39265;BME280;42646;51.910;7.724;2023-04-22T03:58:56;100229.00;;;8.82;100.00
39265;BME280;42646;51.910;7.724;2023-04-22T04:01:24;100228.88;;;8.84;100.00
39265;BME280;42646;51.910;7.724;2023-04-22T04:03:58;100229.72;;;8.85;100.00
39265;BME280;42646;51.910;7.724;2023-04-22T04:06:37;100229.44;;;8.88;100.00
39265;BME280;42646;51.910;7.724;2023-04-22T04:09:07;100222.31;;;8.88;100.00
39265;BME280;42646;51.910;7.724;2023-04-22T04:11:37;100218.66;;;8.89;100.00
39265;BME280;42646;51.910;7.724;2023-04-22T04:14:06;100214.78;;;8.93;100.00
39265;BME280;42646;51.910;7.724;2023-04-22T04:16:44;100209.31;;;8.95;100.00
39265;BME280;42646;51.910;7.724;2023-04-22T04:19:22;100216.31;;;8.96;100.00
39265;BME280;42646;51.910;7.724;2023-04-22T04:21:50;100213.69;;;8.96;100.00
39265;BME280;42646;51.910;7.724;2023-04-22T04:24:20;100217.03;;;8.98;100.00
39265;BME280;42646;51.910;7.724;2023-04-22T04:26:51;100219.53;;;8.99;100.00
39265;BME280;42646;51.910;7.724;2023-04-22T04:29:26;100214.06;;;9.01;100.00
39265;BME280;42646;51.910;7.724;2023-04-22T04:32:10;100219.13;;;9.04;100.00
39265;BME280;42646;51.910;7.724;2023-04-22T04:34:40;100216.47;;;9.04;100.00
39265;BME280;42646;51.910;7.724;2023-04-22T04:37:10;100219.94;;;9.04;100.00
39265;BME280;42646;51.910;7.724;2023-04-22T04:39:55;100215.34;;;9.06;100.00
39265;BME280;42646;51.910;7.724;2023-04-22T04:42:32;100217.03;;;9.07;100.00
39265;BME280;42646;51.910;7.724;2023-04-22T04:45:06;100208.94;;;9.09;100.00
39265;BME280;42646;51.910;7.724;2023-04-22T04:47:35;100204.31;;;9.11;100.00
39265;BME280;42646;51.910;7.724;2023-04-22T04:50:12;100211.16;;;9.14;100.00
39265;BME280;42646;51.910;7.724;2023-04-22T04:52:40;100205.72;;;9.15;100.00
39265;BME280;42646;51.910;7.724;2023-04-22T04:55:11;100213.38;;;9.18;100.00
39265;BME280;42646;51.910;7.724;2023-04-22T04:57:38;100210.59;;;9.20;100.00
39265;BME280;42646;51.910;7.724;2023-04-22T05:00:07;100213.09;;;9.21;100.00
39265;BME280;42646;51.910;7.724;2023-04-22T05:02:38;100218.28;;;9.23;100.00
39265;BME280;42646;51.910;7.724;2023-04-22T05:05:07;100217.28;;;9.24;100.00
39265;BME280;42646;51.910;7.724;2023-04-22T05:07:36;100211.72;;;9.27;100.00
39265;BME280;42646;51.910;7.724;2023-04-22T05:10:12;100208.75;;;9.30;100.00
39265;BME280;42646;51.910;7.724;2023-04-22T05:12:40;100210.16;;;9.34;100.00
39265;BME280;42646;51.910;7.724;2023-04-22T05:15:13;100199.28;;;9.37;100.00
39265;BME280;42646;51.910;7.724;2023-04-22T05:17:42;100201.78;;;9.39;100.00
39265;BME280;42646;51.910;7.724;2023-04-22T05:20:14;100190.03;;;9.41;100.00
39265;BME280;42646;51.910;7.724;2023-04-22T05:22:44;100205.53;;;9.46;100.00
39265;BME280;42646;51.910;7.724;2023-04-22T05:25:14;100202.63;;;9.49;100.00
39265;BME280;42646;51.910;7.724;2023-04-22T05:27:51;100204.81;;;9.53;100.00
39265;BME280;42646;51.910;7.724;2023-04-22T05:30:22;100201.88;;;9.56;100.00
39265;BME280;42646;51.910;7.724;2023-04-22T05:32:50;100203.25;;;9.60;100.00
39265;BME280;42646;51.910;7.724;2023-04-22T05:35:18;100211.78;;;9.64;100.00
39265;BME280;42646;51.910;7.724;2023-04-22T05:37:46;100211.53;;;9.67;100.00
39265;BME280;42646;51.910;7.724;2023-04-22T05:40:16;100217.38;;;9.71;100.00
39265;BME280;42646;51.910;7.724;2023-04-22T05:42:44;100204.66;;;9.74;100.00
39265;BME280;42646;51.910;7.724;2023-04-22T05:45:13;100201.69;;;9.77;100.00
39265;BME280;42646;51.910;7.724;2023-04-22T05:47:45;100203.09;;;9.81;100.00
39265;BME280;42646;51.910;7.724;2023-04-22T05:50:14;100207.13;;;9.85;100.00
39265;BME280;42646;51.910;7.724;2023-04-22T05:52:51;100196.19;;;9.88;100.00
39265;BME280;42646;51.910;7.724;2023-04-22T05:55:21;100192.28;;;9.93;100.00
39265;BME280;42646;51.910;7.724;2023-04-22T05:57:48;100197.16;;;9.97;100.00
39265;BME280;42646;51.910;7.724;2023-04-22T06:00:52;100195.03;;;10.01;100.00
39265;BME280;42646;51.910;7.724;2023-04-22T06:03:49;100185.94;;;10.03;100.00
39265;BME280;42646;51.910;7.724;2023-04-22T06:06:18;100193.34;;;10.09;100.00
39265;BME280;42646;51.910;7.724;2023-04-22T06:08:46;100186.59;;;10.15;100.00
39265;BME280;42646;51.910;7.724;2023-04-22T06:11:15;100185.28;;;10.19;100.00
39265;BME280;42646;51.910;7.724;2023-04-22T06:13:43;100188.38;;;10.24;100.00
39265;BME280;42646;51.910;7.724;2023-04-22T06:16:14;100186.13;;;10.29;100.00
39265;BME280;42646;51.910;7.724;2023-04-22T06:18:43;100184.03;;;10.33;100.00
39265;BME280;42646;51.910;7.724;2023-04-22T06:21:13;100176.44;;;10.38;100.00
39265;BME280;42646;51.910;7.724;2023-04-22T06:23:41;100170.66;;;10.42;100.00
39265;BME280;42646;51.910;7.724;2023-04-22T06:26:09;100181.69;;;10.48;100.00
39265;BME280;42646;51.910;7.724;2023-04-22T06:28:39;100174.94;;;10.53;100.00
39265;BME280;42646;51.910;7.724;2023-04-22T06:31:11;100170.00;;;10.58;100.00
39265;BME280;42646;51.910;7.724;2023-04-22T06:33:41;100180.88;;;10.65;100.00
39265;BME280;42646;51.910;7.724;2023-04-22T06:36:09;100187.41;;;10.70;100.00
39265;BME280;42646;51.910;7.724;2023-04-22T06:38:39;100186.81;;;10.77;100.00
39265;BME280;42646;51.910;7.724;2023-04-22T06:41:26;100186.22;;;10.83;100.00
39265;BME280;42646;51.910;7.724;2023-04-22T06:44:00;100189.09;;;10.89;100.00
39265;BME280;42646;51.910;7.724;2023-04-22T06:46:48;100191.97;;;10.96;100.00
39265;BME280;42646;51.910;7.724;2023-04-22T06:49:42;100191.25;;;11.04;100.00
39265;BME280;42646;51.910;7.724;2023-04-22T06:52:23;100190.63;;;11.10;100.00
39265;BME280;42646;51.910;7.724;2023-04-22T06:54:55;100199.69;;;11.17;100.00
39265;BME280;42646;51.910;7.724;2023-04-22T06:57:23;100198.72;;;11.26;100.00
39265;BME280;42646;51.910;7.724;2023-04-22T06:59:52;100188.31;;;11.33;100.00
39265;BME280;42646;51.910;7.724;2023-04-22T07:02:21;100184.72;;;11.42;100.00
39265;BME280;42646;51.910;7.724;2023-04-22T07:04:49;100182.97;;;11.50;100.00
39265;BME280;42646;51.910;7.724;2023-04-22T07:07:17;100176.53;;;11.61;100.00
39265;BME280;42646;51.910;7.724;2023-04-22T07:09:45;100179.63;;;11.74;100.00
39265;BME280;42646;51.910;7.724;2023-04-22T07:12:16;100173.72;;;11.89;100.00
39265;BME280;42646;51.910;7.724;2023-04-22T07:14:44;100176.31;;;12.07;100.00
39265;BME280;42646;51.910;7.724;2023-04-22T07:17:15;100180.91;;;12.22;100.00
39265;BME280;42646;51.910;7.724;2023-04-22T07:19:44;100166.09;;;12.36;100.00
39265;BME280;42646;51.910;7.724;2023-04-22T07:22:12;100173.47;;;12.50;100.00
39265;BME280;42646;51.910;7.724;2023-04-22T07:24:40;100170.34;;;12.63;100.00
39265;BME280;42646;51.910;7.724;2023-04-22T07:27:09;100168.88;;;12.77;100.00
39265;BME280;42646;51.910;7.724;2023-04-22T07:29:38;100166.06;;;12.95;100.00
39265;BME280;42646;51.910;7.724;2023-04-22T07:32:07;100170.06;;;13.07;100.00
39265;BME280;42646;51.910;7.724;2023-04-22T07:34:36;100166.75;;;13.21;100.00
39265;BME280;42646;51.910;7.724;2023-04-22T07:37:08;100168.28;;;13.40;100.00
39265;BME280;42646;51.910;7.724;2023-04-22T07:39:36;100173.41;;;13.50;100.00
39265;BME280;42646;51.910;7.724;2023-04-22T07:42:05;100167.06;;;13.59;100.00
39265;BME280;42646;51.910;7.724;2023-04-22T07:44:33;100166.53;;;13.72;100.00
39265;BME280;42646;51.910;7.724;2023-04-22T07:47:04;100173.50;;;13.89;100.00
39265;BME280;42646;51.910;7.724;2023-04-22T07:49:36;100158.63;;;13.95;100.00
39265;BME280;42646;51.910;7.724;2023-04-22T07:52:04;100164.44;;;14.06;100.00
39265;BME280;42646;51.910;7.724;2023-04-22T07:54:32;100171.91;;;14.19;100.00
39265;BME280;42646;51.910;7.724;2023-04-22T07:57:00;100174.00;;;14.32;100.00
39265;BME280;42646;51.910;7.724;2023-04-22T07:59:28;100165.22;;;14.46;100.00
39265;BME280;42646;51.910;7.724;2023-04-22T08:01:58;100164.16;;;14.63;100.00
39265;BME280;42646;51.910;7.724;2023-04-22T08:04:26;100158.22;;;14.76;100.00
39265;BME280;42646;51.910;7.724;2023-04-22T08:06:58;100162.75;;;14.76;100.00
39265;BME280;42646;51.910;7.724;2023-04-22T08:09:44;100156.34;;;14.85;100.00
39265;BME280;42646;51.910;7.724;2023-04-22T08:12:12;100154.56;;;15.00;100.00
39265;BME280;42646;51.910;7.724;2023-04-22T08:14:41;100154.53;;;15.23;100.00
39265;BME280;42646;51.910;7.724;2023-04-22T08:17:08;100150.75;;;15.32;100.00
39265;BME280;42646;51.910;7.724;2023-04-22T08:19:37;100151.06;;;15.37;100.00
39265;BME280;42646;51.910;7.724;2023-04-22T08:22:08;100144.59;;;15.46;100.00
39265;BME280;42646;51.910;7.724;2023-04-22T08:24:35;100146.59;;;15.67;100.00
39265;BME280;42646;51.910;7.724;2023-04-22T08:27:03;100138.00;;;15.87;100.00
39265;BME280;42646;51.910;7.724;2023-04-22T08:29:31;100143.72;;;15.98;100.00
39265;BME280;42646;51.910;7.724;2023-04-22T08:31:59;100135.41;;;16.08;98.48
39265;BME280;42646;51.910;7.724;2023-04-22T08:34:27;100131.50;;;16.25;100.00
39265;BME280;42646;51.910;7.724;2023-04-22T08:36:55;100132.00;;;16.50;97.95
39265;BME280;42646;51.910;7.724;2023-04-22T08:39:25;100130.44;;;16.77;94.89
39265;BME280;42646;51.910;7.724;2023-04-22T08:41:54;100120.91;;;16.96;93.71
39265;BME280;42646;51.910;7.724;2023-04-22T08:44:21;100124.41;;;17.18;93.87
39265;BME280;42646;51.910;7.724;2023-04-22T08:46:49;100132.47;;;17.46;89.52
39265;BME280;42646;51.910;7.724;2023-04-22T08:49:18;100127.19;;;17.59;86.57
39265;BME280;42646;51.910;7.724;2023-04-22T08:51:45;100122.81;;;17.80;84.09
39265;BME280;42646;51.910;7.724;2023-04-22T08:54:15;100117.03;;;17.89;81.06
39265;BME280;42646;51.910;7.724;2023-04-22T08:56:45;100116.06;;;17.97;81.47
39265;BME280;42646;51.910;7.724;2023-04-22T08:59:16;100110.16;;;18.15;81.75
39265;BME280;42646;51.910;7.724;2023-04-22T09:02:15;100106.47;;;18.36;76.94
39265;BME280;42646;51.910;7.724;2023-04-22T09:04:46;100114.16;;;18.39;78.34
39265;BME280;42646;51.910;7.724;2023-04-22T09:07:21;100106.13;;;18.52;77.10
39265;BME280;42646;51.910;7.724;2023-04-22T09:09:52;100110.91;;;18.57;78.72
39265;BME280;42646;51.910;7.724;2023-04-22T09:12:21;100111.53;;;18.65;78.65
39265;BME280;42646;51.910;7.724;2023-04-22T09:14:48;100112.38;;;18.73;79.31
39265;BME280;42646;51.910;7.724;2023-04-22T09:17:17;100109.69;;;18.79;77.19
39265;BME280;42646;51.910;7.724;2023-04-22T09:19:56;100103.09;;;18.82;75.48
39265;BME280;42646;51.910;7.724;2023-04-22T09:22:29;100103.47;;;18.79;74.43
39265;BME280;42646;51.910;7.724;2023-04-22T09:25:03;100100.38;;;18.75;75.51
39265;BME280;42646;51.910;7.724;2023-04-22T09:27:34;100108.47;;;18.75;75.40
39265;BME280;42646;51.910;7.724;2023-04-22T09:30:07;100109.31;;;18.82;74.50
39265;BME280;42646;51.910;7.724;2023-04-22T09:32:36;100100.00;;;18.91;72.35
39265;BME280;42646;51.910;7.724;2023-04-22T09:35:05;100095.22;;;18.93;67.74
39265;BME280;42646;51.910;7.724;2023-04-22T09:37:33;100090.88;;;18.86;70.47
39265;BME280;42646;51.910;7.724;2023-04-22T09:40:14;100087.34;;;18.99;72.74
39265;BME280;42646;51.910;7.724;2023-04-22T09:42:48;100079.03;;;19.13;69.68
39265;BME280;42646;51.910;7.724;2023-04-22T09:45:28;100076.13;;;19.15;69.59
39265;BME280;42646;51.910;7.724;2023-04-22T09:47:59;100069.28;;;19.26;68.99
39265;BME280;42646;51.910;7.724;2023-04-22T09:50:28;100072.81;;;19.39;67.41
39265;BME280;42646;51.910;7.724;2023-04-22T09:52:57;100069.66;;;19.49;66.34
39265;BME280;42646;51.910;7.724;2023-04-22T09:55:27;100070.91;;;19.53;66.28
39265;BME280;42646;51.910;7.724;2023-04-22T09:58:04;100063.03;;;19.52;65.20
39265;BME280;42646;51.910;7.724;2023-04-22T10:00:35;100074.63;;;19.65;64.77
39265;BME280;42646;51.910;7.724;2023-04-22T10:03:04;100055.69;;;19.79;62.56
39265;BME280;42646;51.910;7.724;2023-04-22T10:05:35;100053.63;;;19.74;61.74
39265;BME280;42646;51.910;7.724;2023-04-22T10:08:04;100040.13;;;19.74;63.10
39265;BME280;42646;51.910;7.724;2023-04-22T10:10:32;100043.19;;;19.91;63.69
39265;BME280;42646;51.910;7.724;2023-04-22T10:13:05;100041.28;;;20.05;61.66
39265;BME280;42646;51.910;7.724;2023-04-22T10:15:34;100041.38;;;20.23;58.93
39265;BME280;42646;51.910;7.724;2023-04-22T10:18:05;100037.78;;;20.36;58.58
39265;BME280;42646;51.910;7.724;2023-04-22T10:20:35;100037.72;;;20.42;58.86
39265;BME280;42646;51.910;7.724;2023-04-22T10:23:06;100030.00;;;20.52;59.92
39265;BME280;42646;51.910;7.724;2023-04-22T10:25:38;100028.44;;;20.70;55.69
39265;BME280;42646;51.910;7.724;2023-04-22T10:28:10;100035.91;;;20.68;56.38
39265;BME280;42646;51.910;7.724;2023-04-22T10:30:39;100032.78;;;20.71;54.97
39265;BME280;42646;51.910;7.724;2023-04-22T10:33:34;100030.19;;;20.83;55.14
39265;BME280;42646;51.910;7.724;2023-04-22T10:36:06;100024.22;;;20.99;54.45
39265;BME280;42646;51.910;7.724;2023-04-22T10:38:35;100020.38;;;20.88;55.14
39265;BME280;42646;51.910;7.724;2023-04-22T10:41:03;100023.03;;;20.95;54.53
39265;BME280;42646;51.910;7.724;2023-04-22T10:43:44;100016.97;;;20.93;55.63
39265;BME280;42646;51.910;7.724;2023-04-22T10:49:17;100024.16;;;21.30;52.87
39265;BME280;42646;51.910;7.724;2023-04-22T10:51:47;100012.91;;;21.27;50.79
39265;BME280;42646;51.910;7.724;2023-04-22T10:57:21;100010.13;;;21.15;54.46
39265;BME280;42646;51.910;7.724;2023-04-22T10:59:53;100011.69;;;21.29;53.86
39265;BME280;42646;51.910;7.724;2023-04-22T11:02:23;100005.91;;;21.44;52.58
39265;BME280;42646;51.910;7.724;2023-04-22T11:05:20;100005.91;;;21.44;52.17
39265;BME280;42646;51.910;7.724;2023-04-22T11:07:52;100006.13;;;21.61;51.86
39265;BME280;42646;51.910;7.724;2023-04-22T11:10:39;100001.03;;;21.53;51.89
39265;BME280;42646;51.910;7.724;2023-04-22T11:13:12;100005.06;;;21.62;50.19
39265;BME280;42646;51.910;7.724;2023-04-22T11:15:43;100002.75;;;21.66;49.67
39265;BME280;42646;51.910;7.724;2023-04-22T11:18:20;99993.34;;;21.68;52.08
39265;BME280;42646;51.910;7.724;2023-04-22T11:20:49;100002.06;;;21.70;51.27
39265;BME280;42646;51.910;7.724;2023-04-22T11:23:20;99985.91;;;21.94;48.46
39265;BME280;42646;51.910;7.724;2023-04-22T11:25:54;99984.06;;;21.76;48.96
39265;BME280;42646;51.910;7.724;2023-04-22T11:28:25;99985.94;;;21.75;48.78
39265;BME280;42646;51.910;7.724;2023-04-22T11:31:00;99989.06;;;21.60;50.00
39265;BME280;42646;51.910;7.724;2023-04-22T11:33:31;99988.69;;;21.57;50.07
39265;BME280;42646;51.910;7.724;2023-04-22T11:36:01;99981.47;;;21.51;50.89
39265;BME280;42646;51.910;7.724;2023-04-22T11:38:29;99983.72;;;21.54;52.07
39265;BME280;42646;51.910;7.724;2023-04-22T11:40:57;99984.22;;;21.63;50.76
39265;BME280;42646;51.910;7.724;2023-04-22T11:43:28;99971.66;;;21.68;50.87
39265;BME280;42646;51.910;7.724;2023-04-22T11:45:59;99972.72;;;21.67;51.37
39265;BME280;42646;51.910;7.724;2023-04-22T11:48:27;99966.00;;;21.88;50.81
39265;BME280;42646;51.910;7.724;2023-04-22T11:51:16;99965.91;;;21.95;48.49
39265;BME280;42646;51.910;7.724;2023-04-22T11:53:49;99969.56;;;21.89;48.71
39265;BME280;42646;51.910;7.724;2023-04-22T11:56:17;99967.44;;;21.91;50.06
39265;BME280;42646;51.910;7.724;2023-04-22T11:58:46;99973.56;;;21.98;50.32
39265;BME280;42646;51.910;7.724;2023-04-22T12:01:16;99962.16;;;21.96;49.86
39265;BME280;42646;51.910;7.724;2023-04-22T12:03:44;99968.81;;;22.11;48.53
39265;BME280;42646;51.910;7.724;2023-04-22T12:06:12;99959.03;;;22.10;49.06
39265;BME280;42646;51.910;7.724;2023-04-22T12:08:43;99957.69;;;22.31;48.73
39265;BME280;42646;51.910;7.724;2023-04-22T12:11:12;99968.84;;;22.23;49.32
39265;BME280;42646;51.910;7.724;2023-04-22T12:13:42;99964.16;;;22.19;49.44
39265;BME280;42646;51.910;7.724;2023-04-22T12:16:13;99964.16;;;22.19;49.44
39265;BME280;42646;51.910;7.724;2023-04-22T12:18:48;99963.91;;;22.20;49.81
39265;BME280;42646;51.910;7.724;2023-04-22T12:21:18;99962.63;;;22.34;48.35
39265;BME280;42646;51.910;7.724;2023-04-22T12:23:50;99961.25;;;22.44;49.21
39265;BME280;42646;51.910;7.724;2023-04-22T12:26:20;99970.59;;;22.48;50.89
39265;BME280;42646;51.910;7.724;2023-04-22T12:28:53;99971.31;;;22.66;47.13
39265;BME280;42646;51.910;7.724;2023-04-22T12:31:21;99957.38;;;22.63;46.77
39265;BME280;42646;51.910;7.724;2023-04-22T12:33:50;99966.97;;;22.65;46.51
39265;BME280;42646;51.910;7.724;2023-04-22T12:36:21;99956.56;;;22.62;47.55
39265;BME280;42646;51.910;7.724;2023-04-22T12:38:49;99960.22;;;22.68;46.97
39265;BME280;42646;51.910;7.724;2023-04-22T12:41:18;99962.81;;;22.63;47.30
39265;BME280;42646;51.910;7.724;2023-04-22T12:43:48;99968.94;;;22.58;46.49
39265;BME280;42646;51.910;7.724;2023-04-22T12:46:18;99960.31;;;22.50;47.54
39265;BME280;42646;51.910;7.724;2023-04-22T12:48:46;99967.16;;;22.52;46.08
39265;BME280;42646;51.910;7.724;2023-04-22T12:51:16;99967.34;;;22.27;47.55
39265;BME280;42646;51.910;7.724;2023-04-22T12:53:43;99967.34;;;22.27;47.77
39265;BME280;42646;51.910;7.724;2023-04-22T12:56:12;99975.28;;;22.10;48.73
39265;BME280;42646;51.910;7.724;2023-04-22T12:58:39;99974.53;;;22.03;48.99
39265;BME280;42646;51.910;7.724;2023-04-22T13:01:07;99970.03;;;21.97;49.05
39265;BME280;42646;51.910;7.724;2023-04-22T13:03:36;99969.75;;;21.87;49.43
39265;BME280;42646;51.910;7.724;2023-04-22T13:06:05;99966.31;;;21.80;49.09
39265;BME280;42646;51.910;7.724;2023-04-22T13:08:34;99968.72;;;21.70;48.66
39265;BME280;42646;51.910;7.724;2023-04-22T13:11:01;99965.53;;;21.61;48.47
39265;BME280;42646;51.910;7.724;2023-04-22T13:13:29;99974.78;;;21.53;49.25
39265;BME280;42646;51.910;7.724;2023-04-22T13:15:56;99955.84;;;21.53;49.93
39265;BME280;42646;51.910;7.724;2023-04-22T13:18:25;99957.78;;;21.65;49.94
39265;BME280;42646;51.910;7.724;2023-04-22T13:20:52;99957.16;;;21.63;49.88